Главная страница
METAR-TAF:

METAR-TAF

Аэропорты :

Тортола, Британские Виргинские острова

широта: 18-27N, долгота: 064-32W, высота над уровнем моря: 4 м

Текущие метеонаблюдения

Эта сводка был подготовлена 10 часа и 14 минут назад, в 23:00 UTC
Ветер 7 Узел от юго-восточный
Температура 26°C
Влажность 74%
Давление 1016 hPa
Видимость 10 км и более
небольшая облачность на высоте 2100 фута

METAR: TUPJ 152300Z 14007KT 9999 FEW021 26/21 Q1016 RMK A3001

Время: 05:14 (09:14 UTC)

Прогноз

Эта сводка был подготовлена 10 часа и 14 минут назад, в 23:00 UTC
Прогноз действительный с 16-го 00 UTC до 16-го 24 UTC
Ветер 10 Узел от восточный
Видимость 10 км и более
Отдельные облака на высоте 2000 фута
Вероятность 40% :
временами
С 16-го 00 UTC до 16-го 13 UTC
ливневые дожди

TAF: TUPJ 152300Z 1600/1624 10010KT 9999 SCT020 PROB40 TEMPO 1600/1613 SHRA

Метеонаблюдения и прогнозы для более 4000 аэропортов (сводки METAR и TAF).

Имеющиеся станции представлены на карте желтыми и красными точками.

Чтобы увидеть название станции, наведите на нее мышь.

Затем щелкните, чтобы увидеть метеонаблюдения и метеопрогнозы.

Управление картой: чтобы увеличить масштаб, щелкните зеленые кнопки с черным крестиком; чтобы уменьшить масштаб, щелкните зеленую кнопку с тире; для просмотра соседних карт щелкайте зеленые стрелки.


METAR-TAF: